Inwood, Canada
Current Conditions -  °F | °C
As of 1:00 AM on Thursday 27 Nov 2014 (Local Time) from CYWG Reporting Station
Clear Clear  
Wind Chill: -17°   Ceiling: Unl
Heat Index: -17°   Visibility: 15mi
Dew Point: -24°   Wind: 2mph
Humidity: 70%   Direction: 240°WSW
Pressure: 30.55"   Gusts: NA
Location:  50.5°N, 97.5°W
Report Text: CYWG 270700Z 24002KT 15SM SKC M27/M31 A3055 RMK SLP377
Loading
Personal Weather Stations






























Interactive Weather Map New forecast layout! Learn more

10-Day Weather Forecast

Advertisements
Track Severe Weather on mobile